Time;durP1;ratioP1;P1;durP2;ratioP2;P2;SDS_P1;SDS_P2;PMS_P1;PMS_P2;Temp;Humidity;BMP_temperature;BMP_pressure;BME280_temperature;BME280_humidity;BME280_pressure;Samples;Min_cycle;Max_cycle;Signal;HPM_P1;HPM_P2
2022/12/08 00:01:57;;;;;;;6.40;4.45;;;4.00;99.90;;;;;;5101010;28;20028;-69
2022/12/08 00:04:23;;;;;;;13.82;4.20;;;4.10;99.90;;;;;;5119488;28;20108;-69
2022/12/08 00:09:39;;;;;;;10.90;4.38;;;4.50;99.90;;;;;;5119376;28;20051;-69
2022/12/08 00:12:10;;;;;;;9.45;4.40;;;4.60;99.90;;;;;;5119468;28;20093;-69
2022/12/08 00:14:39;;;;;;;4.20;3.90;;;4.60;99.90;;;;;;5100908;28;20044;-69
2022/12/08 00:17:08;;;;;;;4.78;4.30;;;4.60;99.90;;;;;;5119176;28;20039;-71
2022/12/08 00:19:34;;;;;;;7.75;4.70;;;4.50;99.90;;;;;;5101373;28;20035;-69
2022/12/08 00:22:00;;;;;;;9.88;4.82;;;4.30;99.90;;;;;;5119113;28;20111;-69
2022/12/08 00:24:30;;;;;;;8.23;4.70;;;4.30;99.90;;;;;;5119199;28;20114;-69
2022/12/08 00:26:56;;;;;;;12.30;5.30;;;4.30;99.90;;;;;;5118645;28;20055;-69
2022/12/08 00:29:21;;;;;;;11.73;4.93;;;4.20;99.90;;;;;;5119118;28;20035;-69
2022/12/08 00:31:47;;;;;;;8.82;5.68;;;4.20;99.90;;;;;;5100241;28;20088;-69
2022/12/08 00:34:14;;;;;;;9.10;5.47;;;4.20;99.90;;;;;;5119001;28;20054;-69
2022/12/08 00:36:40;;;;;;;10.57;5.38;;;4.40;99.90;;;;;;5118817;28;20373;-69
2022/12/08 00:39:06;;;;;;;12.60;6.28;;;4.50;99.90;;;;;;5118959;28;20119;-69
2022/12/08 00:44:20;;;;;;;6.82;5.00;;;4.30;99.90;;;;;;5118841;28;20051;-69
2022/12/08 00:46:47;;;;;;;7.75;5.68;;;4.10;99.90;;;;;;5118702;28;20040;-69
2022/12/08 00:49:14;;;;;;;5.20;4.70;;;4.00;99.90;;;;;;5118751;28;20035;-68
2022/12/08 00:51:40;;;;;;;7.60;4.90;;;4.10;99.90;;;;;;5083331;28;20052;-69
2022/12/08 00:54:06;;;;;;;9.27;5.40;;;4.10;99.90;;;;;;5118258;28;20031;-69
2022/12/08 00:56:33;;;;;;;7.80;5.10;;;4.10;99.90;;;;;;5118633;28;20036;-69
2022/12/08 00:58:59;;;;;;;6.95;5.72;;;4.10;99.90;;;;;;5118330;28;20031;-69
2022/12/08 01:01:25;;;;;;;6.80;4.95;;;4.30;99.90;;;;;;5099821;28;20047;-69
2022/12/08 01:03:51;;;;;;;9.00;5.60;;;4.50;99.90;;;;;;5118091;28;20032;-69
2022/12/08 01:06:17;;;;;;;10.52;5.47;;;4.50;99.90;;;;;;5118224;28;20047;-69
2022/12/08 01:08:43;;;;;;;7.63;5.30;;;4.40;99.90;;;;;;5118061;28;20046;-69
2022/12/08 01:11:12;;;;;;;8.32;5.65;;;4.40;99.90;;;;;;5118195;28;20047;-69
2022/12/08 01:13:38;;;;;;;9.32;5.55;;;4.30;99.90;;;;;;5100292;28;20035;-69
2022/12/08 01:16:04;;;;;;;10.63;5.55;;;4.30;99.90;;;;;;5117956;28;20325;-69
2022/12/08 01:18:30;;;;;;;9.60;5.55;;;4.20;99.90;;;;;;5117989;28;20080;-69
2022/12/08 01:21:04;;;;;;;8.07;5.10;;;4.20;99.90;;;;;;5117695;28;20039;-69
2022/12/08 01:23:30;;;;;;;9.85;5.70;;;4.20;99.90;;;;;;5117942;28;20043;-69
2022/12/08 01:25:59;;;;;;;6.93;5.18;;;4.20;99.90;;;;;;5099996;28;20044;-69
2022/12/08 01:28:25;;;;;;;10.65;5.22;;;4.20;99.90;;;;;;5100559;28;20084;-69
2022/12/08 01:30:51;;;;;;;7.50;5.25;;;4.30;99.90;;;;;;5117579;28;20044;-69
2022/12/08 01:33:16;;;;;;;7.63;5.47;;;4.40;99.90;;;;;;5117712;28;20045;-69
2022/12/08 01:35:42;;;;;;;12.63;6.10;;;4.20;99.90;;;;;;5117584;28;20047;-69
2022/12/08 01:38:08;;;;;;;6.15;5.10;;;4.10;99.90;;;;;;5099297;28;20042;-69
2022/12/08 01:40:33;;;;;;;8.55;5.95;;;4.00;99.90;;;;;;5099355;28;20039;-69
2022/12/08 01:42:59;;;;;;;6.97;5.65;;;4.00;99.90;;;;;;5117515;28;20389;-69
2022/12/08 01:45:27;;;;;;;6.75;5.32;;;4.10;99.90;;;;;;5117344;28;20488;-69
2022/12/08 01:47:57;;;;;;;7.13;5.07;;;4.00;99.90;;;;;;5117333;28;20043;-70
2022/12/08 01:50:23;;;;;;;11.45;5.43;;;4.00;99.90;;;;;;5117251;28;20052;-69
2022/12/08 01:52:54;;;;;;;7.68;5.40;;;4.10;99.90;;;;;;5117630;28;20047;-69
2022/12/08 01:55:36;;;;;;;7.95;4.85;;;3.90;99.90;;;;;;5117274;28;20075;-69
2022/12/08 01:58:10;;;;;;;5.70;4.40;;;3.80;99.90;;;;;;5117448;28;20103;-69
2022/12/08 02:00:35;;;;;;;5.70;4.88;;;3.80;99.90;;;;;;5116750;28;20071;-69
2022/12/08 02:03:08;;;;;;;4.65;4.18;;;3.90;99.90;;;;;;5099466;28;20412;-69
2022/12/08 02:05:36;;;;;;;6.07;4.43;;;4.00;99.90;;;;;;5117276;28;20035;-69
2022/12/08 02:08:07;;;;;;;7.53;4.70;;;4.00;99.90;;;;;;5131128;27;20043;-73
2022/12/08 02:10:35;;;;;;;5.00;4.60;;;3.80;99.90;;;;;;5137741;27;20114;-69
2022/12/08 02:13:01;;;;;;;4.70;4.30;;;3.70;99.90;;;;;;5137394;27;20043;-69
2022/12/08 02:15:40;;;;;;;5.15;4.55;;;3.50;99.90;;;;;;5137526;27;20408;-69
2022/12/08 02:18:38;;;;;;;4.75;4.35;;;3.50;99.90;;;;;;5137698;27;20036;-69
2022/12/08 02:21:07;;;;;;;5.43;4.20;;;3.60;99.90;;;;;;5119159;27;20068;-69
2022/12/08 02:23:50;;;;;;;6.53;4.60;;;3.70;99.90;;;;;;5119585;27;20445;-69
2022/12/08 02:26:40;;;;;;;5.03;4.53;;;3.80;99.90;;;;;;5137651;27;20043;-69
2022/12/08 02:29:12;;;;;;;6.03;5.03;;;4.10;99.90;;;;;;5137652;28;20046;-69
2022/12/08 02:31:56;;;;;;;7.97;5.03;;;4.30;99.90;;;;;;5137002;28;20054;-69
2022/12/08 02:34:57;;;;;;;5.60;5.03;;;4.40;99.90;;;;;;5119337;28;20074;-69
2022/12/08 02:37:38;;;;;;;8.35;5.03;;;4.50;99.90;;;;;;5123104;28;20056;-69
2022/12/08 02:40:21;;;;;;;8.40;5.03;;;4.50;99.90;;;;;;5137262;28;20095;-69
2022/12/08 02:42:59;;;;;;;5.18;4.60;;;4.40;99.90;;;;;;5119291;28;20039;-69
2022/12/08 02:45:35;;;;;;;8.10;5.10;;;4.40;99.90;;;;;;5137385;28;20449;-68
2022/12/08 02:48:00;;;;;;;5.28;4.78;;;4.30;99.90;;;;;;5137472;28;20047;-68
2022/12/08 02:50:27;;;;;;;7.97;4.30;;;4.40;99.90;;;;;;5138448;27;20054;-69
2022/12/08 02:52:53;;;;;;;4.70;4.28;;;4.40;99.90;;;;;;5141381;27;20062;-69
2022/12/08 02:55:23;;;;;;;4.75;4.30;;;4.30;99.90;;;;;;5140983;27;20043;-69
2022/12/08 02:57:58;;;;;;;4.50;4.20;;;4.20;99.90;;;;;;5141319;27;20091;-69
2022/12/08 03:00:28;;;;;;;4.22;3.92;;;4.30;99.90;;;;;;5140608;27;20463;-69
2022/12/08 03:03:32;;;;;;;4.00;3.80;;;4.40;99.90;;;;;;5140970;27;20028;-71
2022/12/08 03:06:13;;;;;;;3.72;3.53;;;4.30;99.90;;;;;;5141297;27;20051;-69
2022/12/08 03:09:06;;;;;;;3.75;3.47;;;4.30;99.90;;;;;;5141057;27;20047;-68
2022/12/08 03:11:43;;;;;;;5.20;3.83;;;4.30;99.90;;;;;;5141029;27;20043;-69
2022/12/08 03:14:12;;;;;;;4.35;3.90;;;4.30;99.90;;;;;;5141035;27;20114;-69
2022/12/08 03:16:42;;;;;;;5.35;4.05;;;4.20;99.90;;;;;;5140990;27;20051;-69
2022/12/08 03:19:41;;;;;;;4.30;3.90;;;4.20;99.90;;;;;;5122635;27;20073;-69
2022/12/08 03:22:09;;;;;;;5.28;4.25;;;4.20;99.90;;;;;;5096178;27;20073;-69
2022/12/08 03:24:41;;;;;;;6.10;4.18;;;4.20;99.90;;;;;;5141019;27;20043;-69
2022/12/08 03:27:29;;;;;;;6.38;4.15;;;4.30;99.90;;;;;;5140617;27;20031;-68
2022/12/08 03:29:56;;;;;;;5.00;4.32;;;4.30;99.90;;;;;;5139981;27;20550;-69
2022/12/08 03:32:28;;;;;;;4.93;4.55;;;4.40;99.90;;;;;;5140094;27;20041;-69
2022/12/08 03:34:56;;;;;;;4.43;4.13;;;4.30;99.90;;;;;;5105184;27;20051;-69
2022/12/08 03:37:22;;;;;;;4.30;4.00;;;4.30;99.90;;;;;;5140605;27;20035;-69
2022/12/08 03:39:48;;;;;;;4.30;4.00;;;4.20;99.90;;;;;;5122232;27;20043;-69
2022/12/08 03:42:14;;;;;;;5.75;4.15;;;4.20;99.90;;;;;;5140700;27;20039;-69
2022/12/08 03:44:39;;;;;;;4.28;3.88;;;4.10;99.90;;;;;;5140250;27;20096;-69
2022/12/08 03:47:05;;;;;;;4.38;4.07;;;4.30;99.90;;;;;;5140173;27;20042;-69
2022/12/08 03:49:31;;;;;;;3.95;3.70;;;4.40;99.90;;;;;;5140508;27;20067;-69
2022/12/08 03:51:57;;;;;;;3.72;3.42;;;4.50;99.90;;;;;;5140061;27;20078;-69
2022/12/08 03:54:23;;;;;;;4.05;3.75;;;4.30;99.90;;;;;;5121985;27;20043;-69
2022/12/08 03:56:48;;;;;;;3.78;3.47;;;4.20;99.90;;;;;;5140042;27;20041;-69
2022/12/08 03:59:14;;;;;;;3.67;3.47;;;4.20;99.90;;;;;;5140168;27;20039;-69
2022/12/08 04:01:40;;;;;;;4.32;3.80;;;4.10;99.90;;;;;;5138757;27;20031;-69
2022/12/08 04:04:05;;;;;;;4.75;3.58;;;4.10;99.90;;;;;;5140036;27;20043;-69
2022/12/08 04:06:31;;;;;;;5.47;3.97;;;3.90;99.90;;;;;;5140129;27;20070;-69
2022/12/08 04:08:57;;;;;;;6.35;3.72;;;4.00;99.90;;;;;;5121753;27;20312;-69
2022/12/08 04:11:22;;;;;;;3.67;3.15;;;3.90;99.90;;;;;;5139834;27;20085;-69
2022/12/08 04:13:48;;;;;;;4.28;3.17;;;3.90;99.90;;;;;;5139994;27;20039;-69
2022/12/08 04:16:21;;;;;;;4.68;3.95;;;3.90;99.90;;;;;;5139922;27;20051;-69
2022/12/08 04:18:47;;;;;;;6.90;5.63;;;4.00;99.90;;;;;;5139841;27;20050;-69
2022/12/08 04:21:13;;;;;;;6.05;4.47;;;3.90;99.90;;;;;;5139878;27;20297;-69
2022/12/08 04:23:38;;;;;;;8.38;4.70;;;3.80;99.90;;;;;;5139561;27;20038;-69
2022/12/08 04:26:05;;;;;;;5.10;4.68;;;3.70;99.90;;;;;;5139544;27;20046;-69
2022/12/08 04:28:30;;;;;;;6.18;4.60;;;3.90;99.90;;;;;;5121498;27;20062;-69
2022/12/08 04:30:56;;;;;;;3.78;3.42;;;3.90;99.90;;;;;;5139049;27;20420;-69
2022/12/08 04:33:22;;;;;;;5.40;4.82;;;4.00;99.90;;;;;;5139733;27;20039;-69
2022/12/08 04:35:48;;;;;;;10.02;7.43;;;4.00;99.90;;;;;;5139332;27;20096;-69
2022/12/08 04:38:14;;;;;;;6.97;5.82;;;4.10;99.90;;;;;;5139641;27;20440;-69
2022/12/08 04:40:39;;;;;;;5.07;3.85;;;4.10;99.90;;;;;;5139315;27;20047;-69
2022/12/08 04:43:05;;;;;;;6.38;5.80;;;4.00;99.90;;;;;;5139182;27;20373;-70
2022/12/08 04:45:32;;;;;;;5.50;5.00;;;4.00;99.90;;;;;;5139026;27;20066;-69
2022/12/08 04:48:01;;;;;;;4.90;4.40;;;4.00;99.90;;;;;;5139284;27;20035;-69
2022/12/08 04:50:26;;;;;;;3.97;3.45;;;4.00;99.90;;;;;;5139042;27;20055;-69
2022/12/08 04:52:52;;;;;;;4.00;3.70;;;3.90;99.90;;;;;;5139131;27;20126;-69
2022/12/08 04:55:18;;;;;;;3.42;3.13;;;3.90;99.90;;;;;;5120963;27;20122;-69
2022/12/08 04:57:44;;;;;;;4.00;3.80;;;3.90;99.90;;;;;;5138811;27;20035;-69
2022/12/08 05:00:10;;;;;;;4.05;3.67;;;3.80;99.90;;;;;;5138700;27;20043;-85
2022/12/08 05:02:36;;;;;;;4.03;3.65;;;3.70;99.90;;;;;;5139024;27;20035;-69
2022/12/08 05:05:02;;;;;;;3.28;2.70;;;3.80;99.90;;;;;;5120899;27;20047;-69
2022/12/08 05:07:28;;;;;;;3.10;2.90;;;3.80;99.90;;;;;;5120843;27;20324;-69
2022/12/08 05:09:54;;;;;;;4.35;2.60;;;4.00;99.90;;;;;;5138567;27;20043;-69
2022/12/08 05:12:19;;;;;;;4.10;3.30;;;4.30;99.90;;;;;;5138516;27;20039;-69
2022/12/08 05:14:46;;;;;;;7.60;3.40;;;4.40;99.90;;;;;;5137432;27;20051;-69
2022/12/08 05:17:13;;;;;;;5.15;3.30;;;4.30;99.90;;;;;;5138839;27;20114;-69
2022/12/08 05:19:39;;;;;;;3.72;2.53;;;4.30;99.90;;;;;;5120340;27;20046;-69
2022/12/08 05:22:04;;;;;;;3.72;3.28;;;4.20;99.90;;;;;;5138723;27;20039;-69
2022/12/08 05:24:30;;;;;;;3.00;2.90;;;4.40;99.90;;;;;;5138342;27;20027;-69
2022/12/08 05:26:56;;;;;;;3.45;3.20;;;4.30;99.90;;;;;;5120369;27;20038;-69
2022/12/08 05:29:21;;;;;;;5.18;4.32;;;4.30;99.90;;;;;;5103493;27;20040;-69
2022/12/08 05:31:47;;;;;;;3.20;3.00;;;4.00;99.90;;;;;;5119929;27;20136;-69
2022/12/08 05:34:13;;;;;;;4.40;2.70;;;4.30;99.90;;;;;;5120015;27;20039;-69
2022/12/08 05:36:38;;;;;;;5.07;2.50;;;4.30;99.90;;;;;;5120076;27;20050;-69
2022/12/08 05:39:04;;;;;;;2.95;2.70;;;4.30;99.90;;;;;;5120244;27;20142;-69
2022/12/08 05:41:30;;;;;;;4.55;2.60;;;4.20;99.90;;;;;;5120113;27;20471;-69
2022/12/08 05:43:55;;;;;;;4.38;2.95;;;4.10;99.90;;;;;;5138348;27;20038;-69
2022/12/08 05:46:21;;;;;;;2.85;2.65;;;3.90;99.90;;;;;;5138147;27;20118;-69
2022/12/08 05:48:47;;;;;;;6.78;2.80;;;3.80;99.90;;;;;;5137868;27;20168;-69
2022/12/08 05:51:23;;;;;;;4.28;2.50;;;3.80;99.90;;;;;;5119810;27;20051;-69
2022/12/08 05:53:50;;;;;;;;;;;3.90;99.90;;;;;;5120623;27;20046;-69
2022/12/08 05:56:15;;;;;;;;;;;4.00;99.90;;;;;;5138164;27;19919;-69
2022/12/08 05:58:41;;;;;;;3.17;2.97;;;4.10;99.90;;;;;;5137810;27;19921;-69
2022/12/08 06:01:16;;;;;;;4.53;3.20;;;4.20;99.90;;;;;;5137653;27;20035;-69
2022/12/08 06:03:42;;;;;;;3.10;2.90;;;4.40;99.90;;;;;;5137828;27;20031;-69
2022/12/08 06:06:08;;;;;;;3.05;2.80;;;4.50;99.90;;;;;;5119609;27;20035;-69
2022/12/08 06:08:33;;;;;;;3.40;3.10;;;4.60;99.90;;;;;;5137643;27;20043;-73
2022/12/08 06:10:59;;;;;;;3.20;2.90;;;4.70;99.90;;;;;;5137601;27;20427;-69
2022/12/08 06:13:24;;;;;;;3.10;2.80;;;4.80;99.90;;;;;;5119870;27;20047;-69
2022/12/08 06:15:50;;;;;;;5.85;3.40;;;4.80;99.90;;;;;;5119641;28;20039;-69
2022/12/08 06:18:16;;;;;;;4.00;2.88;;;4.90;99.90;;;;;;5119839;27;20078;-69
2022/12/08 06:20:41;;;;;;;2.53;2.33;;;4.90;99.90;;;;;;5137776;27;20408;-69
2022/12/08 06:23:07;;;;;;;4.00;2.20;;;4.80;99.90;;;;;;5137678;27;20435;-70
2022/12/08 06:25:33;;;;;;;4.45;2.50;;;4.70;99.90;;;;;;5119022;27;20099;-70
2022/12/08 06:27:58;;;;;;;2.85;2.60;;;4.60;99.90;;;;;;5137585;27;20087;-69
2022/12/08 06:30:24;;;;;;;3.63;2.67;;;4.50;99.90;;;;;;5136947;28;20070;-69
2022/12/08 06:32:50;;;;;;;4.45;2.53;;;4.60;99.90;;;;;;5137630;28;20043;-69
2022/12/08 06:35:16;;;;;;;2.67;2.40;;;4.60;99.90;;;;;;5137509;28;20330;-69
2022/12/08 06:37:41;;;;;;;3.85;2.70;;;4.70;99.90;;;;;;5119171;28;20042;-69
2022/12/08 06:40:08;;;;;;;3.08;2.25;;;4.70;99.90;;;;;;5137278;28;20062;-69
2022/12/08 06:42:42;;;;;;;4.38;2.75;;;4.70;99.90;;;;;;5137434;28;20035;-69
2022/12/08 06:45:09;;;;;;;2.97;2.70;;;4.70;99.90;;;;;;5137524;28;20046;-70
2022/12/08 06:47:35;;;;;;;3.45;2.50;;;4.80;99.90;;;;;;5137179;28;20046;-69
2022/12/08 06:50:00;;;;;;;2.40;2.20;;;4.80;99.90;;;;;;5137088;28;20078;-70
2022/12/08 06:52:26;;;;;;;2.13;1.80;;;4.90;99.90;;;;;;5137173;28;20047;-69
2022/12/08 06:54:52;;;;;;;3.13;2.15;;;4.90;99.90;;;;;;5137207;28;20496;-69
2022/12/08 06:57:18;;;;;;;2.70;2.50;;;4.90;99.90;;;;;;5137436;28;20074;-69
2022/12/08 06:59:43;;;;;;;2.72;2.53;;;4.90;99.90;;;;;;5137179;28;20039;-69
2022/12/08 07:02:10;;;;;;;3.30;2.30;;;4.90;99.90;;;;;;5136729;28;20035;-69
2022/12/08 07:04:36;;;;;;;2.50;2.30;;;4.90;99.90;;;;;;5136983;28;20488;-69
2022/12/08 07:07:02;;;;;;;1.70;1.60;;;4.70;99.90;;;;;;5136952;28;20118;-69
2022/12/08 07:09:28;;;;;;;2.08;1.88;;;4.60;99.90;;;;;;5137336;28;20035;-69
2022/12/08 07:11:53;;;;;;;3.90;2.05;;;4.50;99.90;;;;;;5137271;28;20046;-69
2022/12/08 07:14:23;;;;;;;3.63;2.10;;;4.60;99.90;;;;;;5136957;28;20039;-69
2022/12/08 07:16:50;;;;;;;2.15;2.05;;;4.60;99.90;;;;;;5136947;28;20055;-69
2022/12/08 07:19:16;;;;;;;2.03;1.88;;;4.60;99.90;;;;;;5136968;28;20164;-69
2022/12/08 07:21:42;;;;;;;1.88;1.77;;;4.60;99.90;;;;;;5136708;28;20043;-69
2022/12/08 07:24:07;;;;;;;1.90;1.50;;;4.60;99.90;;;;;;5118882;28;20035;-69
2022/12/08 07:26:33;;;;;;;6.68;2.03;;;4.60;99.90;;;;;;5136828;28;20080;-69
2022/12/08 07:28:59;;;;;;;2.10;1.88;;;4.50;99.90;;;;;;5144569;27;20084;-69
2022/12/08 07:31:26;;;;;;;1.70;1.60;;;4.50;99.90;;;;;;5146546;27;20042;-72
2022/12/08 07:33:53;;;;;;;3.33;1.63;;;4.50;99.90;;;;;;5122674;28;20039;-70
2022/12/08 07:36:19;;;;;;;4.97;1.70;;;4.50;99.90;;;;;;5144753;27;20035;-71
2022/12/08 07:38:45;;;;;;;2.50;1.60;;;4.50;99.90;;;;;;5148086;27;20050;-71
2022/12/08 07:41:16;;;;;;;1.98;1.80;;;4.50;99.90;;;;;;5153816;27;20118;-69
2022/12/08 07:43:43;;;;;;;2.15;1.90;;;4.50;99.90;;;;;;5161448;27;20045;-69
2022/12/08 07:46:13;;;;;;;3.40;1.80;;;4.50;99.90;;;;;;5142795;27;20038;-68
2022/12/08 07:48:39;;;;;;;7.57;2.30;;;4.50;99.90;;;;;;5160509;27;20047;-68
2022/12/08 07:51:06;;;;;;;2.97;1.50;;;4.50;99.90;;;;;;5160678;27;20324;-68
2022/12/08 07:53:31;;;;;;;2.97;1.90;;;4.50;99.90;;;;;;5161307;27;20053;-69
2022/12/08 07:55:58;;;;;;;2.75;1.90;;;4.50;99.90;;;;;;5160931;27;20039;-69
2022/12/08 07:58:24;;;;;;;3.88;2.08;;;4.50;99.90;;;;;;5161090;27;20063;-68
2022/12/08 08:00:51;;;;;;;3.53;2.22;;;4.50;99.90;;;;;;5160474;27;20034;-69
2022/12/08 08:03:16;;;;;;;5.13;2.42;;;4.60;99.90;;;;;;5160830;27;20041;-68
2022/12/08 08:05:43;;;;;;;2.70;1.80;;;4.50;99.90;;;;;;5142390;27;20133;-69
2022/12/08 08:08:09;;;;;;;2.67;1.92;;;4.50;99.90;;;;;;5160636;27;20402;-68
2022/12/08 08:10:35;;;;;;;3.72;2.00;;;4.50;99.90;;;;;;5125903;27;20047;-67
2022/12/08 08:13:01;;;;;;;3.85;2.20;;;4.40;99.90;;;;;;5160537;27;20091;-69
2022/12/08 08:15:26;;;;;;;6.57;2.40;;;4.50;99.90;;;;;;5160508;27;20078;-68
2022/12/08 08:17:52;;;;;;;4.53;2.42;;;4.40;99.90;;;;;;5160377;27;20038;-68
2022/12/08 08:20:19;;;;;;;8.63;2.22;;;4.40;99.90;;;;;;5160505;27;20038;-68
2022/12/08 08:22:46;;;;;;;7.75;2.80;;;4.30;99.90;;;;;;5160492;27;20168;-68
2022/12/08 08:25:13;;;;;;;3.70;2.53;;;4.40;99.90;;;;;;5160493;27;20396;-69
2022/12/08 08:27:39;;;;;;;6.43;2.47;;;4.30;99.90;;;;;;5160665;27;20041;-68
2022/12/08 08:30:10;;;;;;;6.35;2.45;;;4.30;99.90;;;;;;5160492;27;20117;-68
2022/12/08 08:32:36;;;;;;;3.08;2.78;;;4.30;99.90;;;;;;5159731;27;20133;-69
2022/12/08 08:35:02;;;;;;;7.10;3.67;;;4.30;99.90;;;;;;5141708;27;20048;-69
2022/12/08 08:37:28;;;;;;;7.25;3.70;;;4.10;99.90;;;;;;5160187;27;20034;-67
2022/12/08 08:39:53;;;;;;;5.63;3.88;;;4.00;99.90;;;;;;5160070;27;20037;-68
2022/12/08 08:42:21;;;;;;;8.73;3.60;;;3.80;99.90;;;;;;5157714;27;20042;-70
2022/12/08 08:44:47;;;;;;;4.10;3.00;;;3.70;99.90;;;;;;5106838;28;20039;-70
2022/12/08 08:47:13;;;;;;;4.63;3.15;;;3.70;99.90;;;;;;5121493;27;20084;-69
2022/12/08 08:49:38;;;;;;;5.45;3.33;;;4.00;99.90;;;;;;5131286;27;20395;-70
2022/12/08 08:52:04;;;;;;;3.40;3.10;;;4.10;99.90;;;;;;5129670;27;20473;-68
2022/12/08 08:54:31;;;;;;;3.53;2.97;;;4.30;99.90;;;;;;5100503;28;20054;-68
2022/12/08 08:56:58;;;;;;;4.10;3.40;;;4.10;99.90;;;;;;5128093;27;20067;-69
2022/12/08 08:59:24;;;;;;;4.10;2.90;;;4.30;99.90;;;;;;5138138;27;20038;-69
2022/12/08 09:01:50;;;;;;;9.57;3.10;;;4.40;99.90;;;;;;5138198;27;20092;-69
2022/12/08 09:04:16;;;;;;;8.60;3.85;;;4.50;99.90;;;;;;5139055;27;20039;-69
2022/12/08 09:06:43;;;;;;;3.92;2.65;;;4.60;99.90;;;;;;5138593;27;20047;-69
2022/12/08 09:09:08;;;;;;;3.42;2.47;;;4.60;99.90;;;;;;5128454;27;20374;-69
2022/12/08 09:11:34;;;;;;;3.55;2.70;;;4.60;99.90;;;;;;5100186;28;20044;-69
2022/12/08 09:14:00;;;;;;;6.40;2.83;;;4.70;99.90;;;;;;5117998;28;20042;-69
2022/12/08 09:16:26;;;;;;;10.02;3.50;;;4.70;99.90;;;;;;5135536;27;20027;-69
2022/12/08 09:18:51;;;;;;;3.60;2.33;;;4.70;99.90;;;;;;5137890;27;20043;-69
2022/12/08 09:21:24;;;;;;;6.20;2.50;;;4.70;99.90;;;;;;5138541;27;20336;-69
2022/12/08 09:23:52;;;;;;;6.38;2.42;;;4.80;99.90;;;;;;5138604;27;20035;-68
2022/12/08 09:26:21;;;;;;;7.32;2.90;;;4.80;99.90;;;;;;5138696;27;20034;-69
2022/12/08 09:28:48;;;;;;;4.35;2.63;;;4.90;99.90;;;;;;5138313;27;20129;-69
2022/12/08 09:31:16;;;;;;;6.78;2.95;;;4.80;99.90;;;;;;5120192;27;20057;-69
2022/12/08 09:33:42;;;;;;;5.47;2.70;;;5.00;99.90;;;;;;5138121;27;20039;-69
2022/12/08 09:36:08;;;;;;;18.38;3.33;;;4.90;99.90;;;;;;5138370;27;20118;-69
2022/12/08 09:38:34;;;;;;;3.13;2.80;;;5.00;99.90;;;;;;5138482;27;20040;-69
2022/12/08 09:41:03;;;;;;;7.80;3.60;;;5.10;99.90;;;;;;5119857;27;20047;-68
2022/12/08 09:43:57;;;;;;;4.95;4.00;;;5.10;99.90;;;;;;5138309;27;20355;-69
2022/12/08 09:46:27;;;;;;;6.03;3.90;;;5.00;99.90;;;;;;5138263;27;20035;-69
2022/12/08 09:48:56;;;;;;;8.07;4.03;;;4.80;99.90;;;;;;5119927;27;20114;-69
2022/12/08 09:51:29;;;;;;;5.97;4.30;;;4.80;99.90;;;;;;5119725;27;20055;-69
2022/12/08 09:54:00;;;;;;;8.13;3.55;;;4.80;99.90;;;;;;5138135;27;20047;-69
2022/12/08 09:56:35;;;;;;;6.07;3.67;;;4.80;99.90;;;;;;5138203;27;20043;-69
2022/12/08 09:59:18;;;;;;;7.30;4.22;;;4.80;99.90;;;;;;5137878;27;20377;-68
2022/12/08 10:01:44;;;;;;;6.97;4.53;;;4.80;99.90;;;;;;5129906;27;20390;-69
2022/12/08 10:04:31;;;;;;;9.68;4.10;;;4.90;99.90;;;;;;5117762;28;20111;-69
2022/12/08 10:06:56;;;;;;;;;;;4.70;99.90;;;;;;5133888;27;20383;-71
2022/12/08 10:09:53;;;;;;;5.87;3.83;;;4.70;99.90;;;;;;5137557;27;19974;-69
2022/12/08 10:12:36;;;;;;;9.30;4.20;;;4.90;99.90;;;;;;5119421;28;20103;-70
2022/12/08 10:15:25;;;;;;;11.10;4.60;;;4.90;99.90;;;;;;5119287;27;20088;-70
2022/12/08 10:17:53;;;;;;;10.80;4.60;;;5.00;99.90;;;;;;5137932;27;20428;-68
2022/12/08 10:20:24;;;;;;;10.43;4.50;;;5.10;99.90;;;;;;5137714;27;20315;-69
2022/12/08 10:23:16;;;;;;;11.43;4.65;;;5.20;99.90;;;;;;5122431;27;20354;-69
2022/12/08 10:26:03;;;;;;;5.55;3.95;;;5.20;99.90;;;;;;5128429;27;20058;-70
2022/12/08 10:28:30;;;;;;;10.75;4.80;;;5.20;99.90;;;;;;5137247;27;20035;-70
2022/12/08 10:30:56;;;;;;;8.85;4.03;;;5.30;99.90;;;;;;5136767;27;20506;-70
2022/12/08 10:33:22;;;;;;;7.60;4.28;;;5.10;99.90;;;;;;5119281;28;20082;-69
2022/12/08 10:35:51;;;;;;;10.52;4.20;;;5.10;99.90;;;;;;5136025;28;20032;-70
2022/12/08 10:38:27;;;;;;;12.52;4.18;;;5.20;99.90;;;;;;5137432;28;20039;-69
2022/12/08 10:40:59;;;;;;;6.68;4.00;;;5.20;99.90;;;;;;5125236;28;20031;-75
2022/12/08 10:43:26;;;;;;;6.18;4.90;;;5.20;99.90;;;;;;5126622;28;20035;-70
2022/12/08 10:45:53;;;;;;;9.15;4.70;;;5.40;99.90;;;;;;5100626;28;20073;-72
2022/12/08 10:48:27;;;;;;;5.45;4.55;;;5.40;99.90;;;;;;5090274;28;20043;-73
2022/12/08 10:50:57;;;;;;;6.95;4.35;;;5.30;99.90;;;;;;5132691;28;20082;-71
2022/12/08 10:53:29;;;;;;;5.43;4.10;;;5.40;99.90;;;;;;5122695;28;20052;-70
2022/12/08 10:56:01;;;;;;;7.93;4.00;;;5.80;99.90;;;;;;5116630;28;20039;-70
2022/12/08 10:58:40;;;;;;;7.80;3.80;;;5.80;99.90;;;;;;5116646;28;20092;-69
2022/12/08 11:01:31;;;;;;;6.47;3.17;;;5.90;99.90;;;;;;5098327;28;20105;-70
2022/12/08 11:03:59;;;;;;;3.20;2.90;;;6.00;99.90;;;;;;5116701;28;20036;-70
2022/12/08 11:06:35;;;;;;;18.83;3.70;;;6.10;99.90;;;;;;5098733;28;20047;-70
2022/12/08 11:09:20;;;;;;;7.13;2.35;;;6.20;99.90;;;;;;5115637;27;20050;-71
2022/12/08 11:12:05;;;;;;;3.50;2.17;;;6.10;99.90;;;;;;5146044;27;20057;-70
2022/12/08 11:14:32;;;;;;;3.67;2.00;;;5.90;99.90;;;;;;5161683;27;20038;-70
2022/12/08 11:17:09;;;;;;;2.47;1.80;;;6.00;99.90;;;;;;5161456;27;20072;-69
2022/12/08 11:19:40;;;;;;;3.90;2.00;;;6.00;99.90;;;;;;5161302;27;20049;-69
2022/12/08 11:22:28;;;;;;;6.70;1.90;;;6.10;99.90;;;;;;5161654;27;20117;-69
2022/12/08 11:25:16;;;;;;;3.58;2.00;;;6.20;99.90;;;;;;5113251;27;20054;-69
2022/12/08 11:27:45;;;;;;;5.75;1.95;;;6.20;99.90;;;;;;5126640;27;20039;-71
2022/12/08 11:30:33;;;;;;;6.50;2.13;;;5.90;99.90;;;;;;5119858;28;20036;-69
2022/12/08 11:33:18;;;;;;;6.45;2.35;;;5.90;99.90;;;;;;5101486;28;20047;-69
2022/12/08 11:35:50;;;;;;;6.07;1.73;;;6.00;99.90;;;;;;5120089;28;20055;-69
2022/12/08 11:38:20;;;;;;;2.80;1.08;;;6.00;99.90;;;;;;5123747;27;20031;-69
2022/12/08 11:40:50;;;;;;;5.93;1.45;;;6.40;99.90;;;;;;5139700;27;20077;-72
2022/12/08 11:43:33;;;;;;;7.70;1.20;;;6.60;99.90;;;;;;5140428;27;20050;-69
2022/12/08 11:46:12;;;;;;;4.60;1.02;;;6.70;99.90;;;;;;5140672;27;20106;-69
2022/12/08 11:49:08;;;;;;;5.68;1.38;;;6.60;99.90;;;;;;5140729;27;20037;-69
2022/12/08 11:51:38;;;;;;;1.85;1.08;;;6.70;99.90;;;;;;5140277;27;20047;-70
2022/12/08 11:54:17;;;;;;;6.47;1.13;;;6.70;99.90;;;;;;5140672;27;20073;-68
2022/12/08 11:56:50;;;;;;;5.10;1.90;;;6.90;99.90;;;;;;5140244;27;20046;-70
2022/12/08 11:59:26;;;;;;;7.72;1.63;;;7.20;99.90;;;;;;5140125;27;20118;-69
2022/12/08 12:01:52;;;;;;;2.90;1.25;;;7.70;99.90;;;;;;5140165;27;20047;-67
2022/12/08 12:04:35;;;;;;;7.10;1.65;;;7.80;99.90;;;;;;5140209;27;20110;-69
2022/12/08 12:07:32;;;;;;;5.75;1.55;;;7.80;99.90;;;;;;5140057;27;20362;-70
2022/12/08 12:10:07;;;;;;;2.58;1.17;;;7.70;99.90;;;;;;5131273;27;20039;-70
2022/12/08 12:12:44;;;;;;;4.53;1.50;;;7.10;99.90;;;;;;5112793;27;20050;-69
2022/12/08 12:15:13;;;;;;;3.35;1.70;;;7.10;99.90;;;;;;5134993;27;20039;-70
2022/12/08 12:18:07;;;;;;;4.45;1.50;;;7.30;99.90;;;;;;5090038;28;20081;-70
2022/12/08 12:20:38;;;;;;;2.63;1.30;;;7.10;99.90;;;;;;5118983;28;20110;-71
2022/12/08 12:23:30;;;;;;;3.15;1.33;;;7.20;99.90;;;;;;5119917;27;20465;-71
2022/12/08 12:26:03;;;;;;;5.97;1.60;;;7.10;99.90;;;;;;5119552;27;20051;-70
2022/12/08 12:28:40;;;;;;;2.65;1.10;;;7.20;99.90;;;;;;5110863;27;20046;-71
2022/12/08 12:31:09;;;;;;;1.98;1.13;;;7.50;99.90;;;;;;5134723;27;20043;-70
2022/12/08 12:33:35;;;;;;;2.75;1.23;;;7.60;99.90;;;;;;5139392;27;20114;-70
2022/12/08 12:36:05;;;;;;;4.65;1.30;;;7.60;99.90;;;;;;5136226;27;20100;-71
2022/12/08 12:41:50;;;;;;;12.63;2.65;;;8.00;99.80;;;;;;5100810;28;20043;-71
2022/12/08 12:44:16;;;;;;;6.95;2.20;;;8.50;99.30;;;;;;5118728;28;20040;-69
2022/12/08 12:46:51;;;;;;;4.32;0.90;;;8.30;99.30;;;;;;5118739;28;20103;-70
2022/12/08 12:49:39;;;;;;;1.45;0.80;;;8.40;99.30;;;;;;5118742;28;20059;-72
2022/12/08 12:52:22;;;;;;;1.70;0.90;;;8.60;99.20;;;;;;5126327;27;20104;-71
2022/12/08 12:54:48;;;;;;;1.60;1.10;;;8.50;98.80;;;;;;5133323;27;20041;-71
2022/12/08 12:57:18;;;;;;;1.90;0.50;;;8.70;99.00;;;;;;5135756;27;20039;-71
2022/12/08 12:59:45;;;;;;;3.28;0.50;;;9.30;99.20;;;;;;5120463;27;20428;-71
2022/12/08 13:02:16;;;;;;;1.00;0.30;;;10.20;98.70;;;;;;5138221;27;20039;-70
2022/12/08 13:05:11;;;;;;;2.22;0.40;;;10.70;98.00;;;;;;5138888;27;20369;-69
2022/12/08 13:07:55;;;;;;;1.55;0.38;;;10.40;97.40;;;;;;5134496;27;20039;-70
2022/12/08 13:10:38;;;;;;;2.20;0.47;;;9.90;97.90;;;;;;5132262;27;20043;-70
2022/12/08 13:13:11;;;;;;;5.32;0.50;;;10.00;97.80;;;;;;5118157;28;20036;-71
2022/12/08 13:15:40;;;;;;;5.50;0.70;;;9.90;97.70;;;;;;5118071;28;20136;-69
2022/12/08 13:18:16;;;;;;;116.40;6.40;;;9.50;97.70;;;;;;5118155;28;20118;-70
2022/12/08 13:20:47;;;;;;;6.05;1.00;;;9.20;97.90;;;;;;5124861;27;20093;-68
2022/12/08 13:23:44;;;;;;;2.95;1.00;;;8.90;98.20;;;;;;5117900;28;20085;-70